Time;durP1;ratioP1;P1;durP2;ratioP2;P2;SDS_P1;SDS_P2;PMS_P1;PMS_P2;Temp;Humidity;BMP_temperature;BMP_pressure;BME280_temperature;BME280_humidity;BME280_pressure;Samples;Min_cycle;Max_cycle;Signal;HPM_P1;HPM_P2
2023/06/28 00:00:12;;;;;;;;;7.00;7.00;;;;;22.64;45.87;100332.90;110243;1252;18199;-40
2023/06/28 00:03:00;;;;;;;;;8.00;7.00;;;;;22.62;46.01;100333.36;110144;1265;20633;-41
2023/06/28 00:05:28;;;;;;;;;5.00;5.00;;;;;22.60;45.86;100333.78;110278;1265;19899;-40
2023/06/28 00:07:55;;;;;;;;;7.00;5.00;;;;;22.60;46.04;100329.03;110274;1251;18519;-40
2023/06/28 00:10:23;;;;;;;;;7.00;7.00;;;;;22.58;45.97;100331.10;110236;1251;19384;-40
2023/06/28 00:12:50;;;;;;;;;7.00;7.00;;;;;22.57;46.05;100327.98;110279;1251;20818;-40
2023/06/28 00:15:18;;;;;;;;;5.00;5.00;;;;;22.56;46.21;100331.92;110258;1265;19924;-41
2023/06/28 00:17:45;;;;;;;;;7.00;6.00;;;;;22.56;46.12;100322.05;110217;1265;20958;-42
2023/06/28 00:20:12;;;;;;;;;7.00;7.00;;;;;22.56;46.29;100319.20;110240;1251;20000;-40
2023/06/28 00:22:40;;;;;;;;;7.00;7.00;;;;;22.57;46.08;100314.87;110242;1259;20535;-40
2023/06/28 00:25:07;;;;;;;;;7.00;7.00;;;;;22.57;46.29;100317.77;110198;1250;19460;-42
2023/06/28 00:27:35;;;;;;;;;8.00;7.00;;;;;22.56;46.42;100313.45;110259;1251;20006;-40
2023/06/28 00:30:02;;;;;;;;;5.00;5.00;;;;;22.54;46.43;100316.41;110252;1265;19090;-40
2023/06/28 00:32:30;;;;;;;;;7.00;7.00;;;;;22.52;46.56;100314.67;110280;1265;17871;-40
2023/06/28 00:34:57;;;;;;;;;5.00;5.00;;;;;22.52;46.66;100316.61;110233;1265;20254;-40
2023/06/28 00:37:24;;;;;;;;;6.00;6.00;;;;;22.51;46.61;100318.16;110215;1251;21958;-39
2023/06/28 00:39:52;;;;;;;;;5.00;5.00;;;;;22.53;46.72;100314.75;110242;1251;19466;-40
2023/06/28 00:42:19;;;;;;;;;7.00;7.00;;;;;22.51;46.93;100316.43;110255;1265;18878;-39
2023/06/28 00:44:46;;;;;;;;;5.00;5.00;;;;;22.50;46.68;100314.66;110280;1251;19740;-39
2023/06/28 00:47:14;;;;;;;;;7.00;5.00;;;;;22.50;46.95;100324.20;110237;1251;21963;-40
2023/06/28 00:49:41;;;;;;;;;7.00;7.00;;;;;22.48;46.85;100320.27;110245;1250;21812;-40
2023/06/28 00:52:08;;;;;;;;;9.00;7.00;;;;;22.49;46.86;100323.73;110253;1257;21205;-39
2023/06/28 00:54:36;;;;;;;;;7.50;7.00;;;;;22.49;46.91;100313.98;110234;1266;21470;-39
2023/06/28 00:57:03;;;;;;;;;5.00;5.00;;;;;22.49;47.03;100320.66;110080;1250;165882;-40
2023/06/28 00:59:31;;;;;;;;;7.50;7.00;;;;;22.49;47.03;100325.59;110215;1251;19915;-41
2023/06/28 01:01:58;;;;;;;;;7.00;7.00;;;;;22.48;47.29;100326.83;110190;1251;19456;-41
2023/06/28 01:04:25;;;;;;;;;7.00;7.00;;;;;22.47;47.08;100328.20;110262;1251;19923;-41
2023/06/28 01:06:53;;;;;;;;;7.00;5.00;;;;;22.47;47.10;100330.42;110265;1265;18280;-41
2023/06/28 01:09:20;;;;;;;;;5.00;5.00;;;;;22.44;47.18;100328.39;110208;1265;21376;-41
2023/06/28 01:11:48;;;;;;;;;7.00;7.00;;;;;22.43;47.05;100325.66;110239;1249;21515;-41
2023/06/28 01:14:15;;;;;;;;;8.00;8.00;;;;;22.43;47.16;100322.27;110197;1251;22230;-41
2023/06/28 01:16:42;;;;;;;;;7.00;7.00;;;;;22.42;47.00;100322.54;110206;1251;17910;-41
2023/06/28 01:19:13;;;;;;;;;5.00;5.00;;;;;22.41;47.09;100320.39;110273;1260;19866;-41
2023/06/28 01:21:40;;;;;;;;;7.00;7.00;;;;;22.39;46.89;100323.39;110256;1260;19327;-41
2023/06/28 01:24:10;;;;;;;;;7.00;7.00;;;;;22.40;47.08;100325.11;110292;1265;19403;-41
2023/06/28 01:26:38;;;;;;;;;7.00;7.00;;;;;22.38;46.91;100326.54;110288;1265;21156;-41
2023/06/28 01:29:05;;;;;;;;;5.00;5.00;;;;;22.36;47.05;100323.05;110289;1257;20054;-41
2023/06/28 01:31:34;;;;;;;;;6.00;5.00;;;;;22.11;47.39;100313.94;110243;1257;18070;-41
2023/06/28 01:34:01;;;;;;;;;5.00;5.00;;;;;21.86;47.92;100313.48;110224;1250;20346;-41
2023/06/28 01:36:29;;;;;;;;;7.00;7.00;;;;;21.66;48.45;100310.16;110222;1265;18183;-40
2023/06/28 01:38:56;;;;;;;;;7.00;7.00;;;;;21.56;48.67;100310.72;110309;1250;20850;-41
2023/06/28 01:41:24;;;;;;;;;7.00;7.00;;;;;21.47;49.00;100307.45;110249;1266;19914;-40
2023/06/28 01:43:51;;;;;;;;;7.00;7.00;;;;;21.54;48.93;100310.95;110268;1265;18302;-40
2023/06/28 01:46:18;;;;;;;;;5.00;5.00;;;;;21.50;48.86;100308.48;110324;1251;19372;-40
2023/06/28 01:48:46;;;;;;;;;7.00;7.00;;;;;21.44;49.04;100306.98;110262;1250;19956;-40
2023/06/28 01:51:13;;;;;;;;;8.00;7.00;;;;;21.40;49.13;100306.01;110256;1251;19757;-40
2023/06/28 01:53:40;;;;;;;;;7.00;5.00;;;;;21.41;49.20;100309.84;110238;1257;20612;-41
2023/06/28 01:56:08;;;;;;;;;7.00;7.00;;;;;21.39;49.33;100314.87;110156;1266;18571;-40
2023/06/28 01:58:35;;;;;;;;;8.00;8.00;;;;;21.37;49.24;100316.67;110177;1251;22174;-39
2023/06/28 02:01:02;;;;;;;;;6.33;6.33;;;;;21.37;49.23;100319.42;110260;1250;19632;-41
2023/06/28 02:03:30;;;;;;;;;5.00;5.00;;;;;21.32;49.56;100317.07;110294;1265;21825;-40
2023/06/28 02:05:57;;;;;;;;;7.00;7.00;;;;;21.33;49.55;100319.42;110270;1251;19681;-40
2023/06/28 02:08:24;;;;;;;;;7.00;7.00;;;;;21.29;49.66;100317.14;110209;1265;18100;-39
2023/06/28 02:10:52;;;;;;;;;7.00;5.00;;;;;21.30;49.58;100314.88;110295;1249;21359;-39
2023/06/28 02:13:19;;;;;;;;;7.00;7.00;;;;;21.27;49.57;100313.35;110275;1251;19629;-40
2023/06/28 02:15:46;;;;;;;;;7.00;7.00;;;;;21.14;50.15;100314.75;110290;1250;18560;-40
2023/06/28 02:18:17;;;;;;;;;16.50;16.00;;;;;21.17;50.06;100314.80;110268;1251;19895;-40
2023/06/28 02:20:44;;;;;;;;;16.00;16.00;;;;;21.16;50.09;100311.87;110224;1250;19632;-40
2023/06/28 02:23:12;;;;;;;;;10.00;10.00;;;;;21.13;50.16;100314.60;110184;1265;18433;-41
2023/06/28 02:25:39;;;;;;;;;8.00;8.00;;;;;21.10;50.27;100310.55;110174;1251;20134;-41
2023/06/28 02:28:06;;;;;;;;;8.00;8.00;;;;;21.17;50.18;100312.95;110228;1249;19958;-40
2023/06/28 02:30:34;;;;;;;;;10.33;8.67;;;;;21.16;50.31;100314.38;110269;1251;21471;-40
2023/06/28 02:33:01;;;;;;;;;10.00;8.00;;;;;21.19;50.22;100312.72;110255;1265;18733;-40
2023/06/28 02:35:29;;;;;;;;;8.67;8.00;;;;;21.18;50.21;100314.45;110269;1251;21924;-40
2023/06/28 02:37:56;;;;;;;;;8.00;7.50;;;;;21.15;50.36;100313.42;110198;1250;19424;-40
2023/06/28 02:40:24;;;;;;;;;11.00;10.00;;;;;21.17;50.19;100314.64;110268;1259;20564;-39
2023/06/28 02:42:51;;;;;;;;;7.00;7.00;;;;;21.16;50.48;100310.81;110210;1251;20422;-40
2023/06/28 02:45:19;;;;;;;;;10.00;8.00;;;;;21.06;50.67;100308.89;110212;1266;21909;-40
2023/06/28 02:47:46;;;;;;;;;7.00;7.00;;;;;20.96;50.57;100307.00;110266;1251;18662;-39
2023/06/28 02:50:13;;;;;;;;;8.00;7.33;;;;;20.96;50.81;100306.84;110261;1265;18571;-39
2023/06/28 02:52:41;;;;;;;;;8.00;8.00;;;;;21.04;50.73;100310.02;110294;1257;18575;-39
2023/06/28 02:55:09;;;;;;;;;8.00;8.00;;;;;21.05;50.42;100309.94;110183;1249;18571;-40
2023/06/28 02:57:37;;;;;;;;;9.00;8.00;;;;;20.92;50.82;100306.11;110211;1265;19057;-40
2023/06/28 03:00:05;;;;;;;;;7.00;7.00;;;;;20.90;51.00;100300.77;110205;1265;19235;-40
2023/06/28 03:02:33;;;;;;;;;7.00;7.00;;;;;20.94;50.82;100301.62;110227;1250;20269;-41
2023/06/28 03:05:00;;;;;;;;;7.00;7.00;;;;;20.88;51.02;100302.20;110242;1265;19708;-40
2023/06/28 03:07:28;;;;;;;;;10.00;10.00;;;;;20.89;50.97;100304.23;110246;1265;19126;-39
2023/06/28 03:09:55;;;;;;;;;8.67;8.00;;;;;20.87;51.00;100303.81;110196;1265;20241;-39
2023/06/28 03:12:22;;;;;;;;;11.00;10.00;;;;;20.85;50.92;100304.07;110263;1250;20053;-39
2023/06/28 03:14:50;;;;;;;;;8.00;8.00;;;;;20.88;51.00;100300.85;110231;1251;22002;-39
2023/06/28 03:17:19;;;;;;;;;8.00;8.00;;;;;20.87;51.16;100301.22;110252;1251;20267;-39
2023/06/28 03:19:47;;;;;;;;;9.00;8.00;;;;;20.89;51.15;100304.84;110289;1250;19733;-40
2023/06/28 03:22:14;;;;;;;;;5.00;5.00;;;;;20.89;51.01;100303.27;110270;1265;18031;-40
2023/06/28 03:24:42;;;;;;;;;7.00;7.00;;;;;20.91;50.90;100305.88;110256;1257;18891;-40
2023/06/28 03:27:09;;;;;;;;;5.00;5.00;;;;;20.91;51.02;100308.90;110274;1260;19659;-40
2023/06/28 03:29:37;;;;;;;;;8.00;7.00;;;;;20.90;51.07;100307.42;110200;1265;19189;-40
2023/06/28 03:32:04;;;;;;;;;7.00;7.00;;;;;20.84;51.17;100305.27;110223;1260;18466;-40
2023/06/28 03:34:32;;;;;;;;;10.00;10.00;;;;;20.83;51.14;100305.02;110250;1265;18369;-39
2023/06/28 03:36:59;;;;;;;;;8.00;8.00;;;;;20.77;51.59;100306.45;110197;1265;21535;-40
2023/06/28 03:39:26;;;;;;;;;19.00;19.00;;;;;20.80;51.52;100310.63;110221;1251;22108;-40
2023/06/28 03:41:54;;;;;;;;;13.00;13.00;;;;;20.82;51.65;100311.46;110261;1250;20812;-40
2023/06/28 03:44:21;;;;;;;;;10.00;10.00;;;;;20.82;51.47;100308.44;110247;1265;18228;-40
2023/06/28 03:46:48;;;;;;;;;10.00;10.00;;;;;20.86;51.44;100302.49;110235;1251;20555;-40
2023/06/28 03:49:16;;;;;;;;;13.00;13.00;;;;;20.81;51.45;100303.11;110187;1265;18585;-41
2023/06/28 03:51:43;;;;;;;;;14.33;13.00;;;;;20.80;51.59;100300.79;110245;1265;21893;-40
2023/06/28 03:54:11;;;;;;;;;16.00;16.00;;;;;20.74;51.99;100302.26;110266;1265;20201;-40
2023/06/28 03:56:38;;;;;;;;;19.00;16.00;;;;;20.70;52.08;100302.08;110278;1250;20068;-40
2023/06/28 03:59:06;;;;;;;;;13.50;12.00;;;;;20.61;52.34;100295.69;110271;1266;18132;-40
2023/06/28 04:01:34;;;;;;;;;16.00;13.00;;;;;20.67;52.22;100289.53;110306;1249;18784;-42
2023/06/28 04:04:01;;;;;;;;;10.00;10.00;;;;;20.80;52.00;100292.69;110219;1265;18605;-41
2023/06/28 04:06:28;;;;;;;;;9.00;8.00;;;;;20.76;52.12;100288.86;110193;1257;22012;-39
2023/06/28 04:08:56;;;;;;;;;13.00;13.00;;;;;20.67;52.20;100289.98;110272;1265;19927;-40
2023/06/28 04:11:23;;;;;;;;;18.00;16.00;;;;;20.64;52.48;100285.21;110195;1251;19713;-40
2023/06/28 04:13:50;;;;;;;;;23.00;20.00;;;;;20.61;52.75;100282.83;110203;1266;19686;-39
2023/06/28 04:16:18;;;;;;;;;20.00;18.00;;;;;20.56;52.92;100280.13;110154;1265;21828;-40
2023/06/28 04:18:45;;;;;;;;;14.00;13.00;;;;;20.50;52.99;100277.66;110266;1251;20044;-40
2023/06/28 04:21:12;;;;;;;;;12.00;12.00;;;;;20.53;53.07;100275.48;110272;1251;19483;-39
2023/06/28 04:23:40;;;;;;;;;13.00;12.00;;;;;20.23;53.95;100275.02;110202;1260;20146;-39
2023/06/28 04:26:07;;;;;;;;;10.50;9.50;;;;;20.24;54.07;100270.83;110175;1265;19068;-41
2023/06/28 04:28:34;;;;;;;;;9.50;9.00;;;;;20.24;54.32;100270.79;110249;1266;21900;-41
2023/06/28 04:31:02;;;;;;;;;21.00;19.00;;;;;20.30;54.21;100269.50;110279;1251;20208;-41
2023/06/28 04:33:30;;;;;;;;;16.00;14.00;;;;;20.28;54.68;100269.35;110247;1265;21000;-39
2023/06/28 04:36:01;;;;;;;;;21.50;21.00;;;;;20.25;54.60;100271.57;110267;1251;19835;-41
2023/06/28 04:38:32;;;;;;;;;18.50;16.00;;;;;20.22;54.88;100270.92;110248;1266;19948;-41
2023/06/28 04:40:59;;;;;;;;;13.00;12.00;;;;;20.20;55.08;100268.89;110235;1260;18796;-39
2023/06/28 04:43:27;;;;;;;;;12.00;10.67;;;;;20.23;55.12;100271.70;110220;1251;21955;-41
2023/06/28 04:45:55;;;;;;;;;13.00;12.00;;;;;20.15;55.29;100268.12;110224;1260;20160;-40
2023/06/28 04:48:23;;;;;;;;;9.00;9.00;;;;;20.08;55.57;100274.08;110274;1265;19953;-40
2023/06/28 04:50:51;;;;;;;;;9.50;9.50;;;;;20.01;55.89;100271.98;110248;1265;18764;-40
2023/06/28 04:53:18;;;;;;;;;9.00;9.00;;;;;20.06;55.87;100274.80;110216;1250;18738;-41
2023/06/28 04:55:48;;;;;;;;;10.00;10.00;;;;;20.14;55.65;100273.39;110240;1249;19525;-39
2023/06/28 04:58:15;;;;;;;;;11.00;11.00;;;;;20.16;55.75;100279.88;110225;1249;22874;-39
2023/06/28 05:00:43;;;;;;;;;21.00;19.00;;;;;20.17;55.58;100272.55;110123;1265;18723;-40
2023/06/28 05:03:14;;;;;;;;;19.00;15.67;;;;;20.11;55.88;100272.54;110164;1251;20287;-41
2023/06/28 05:05:42;;;;;;;;;;;;;;;20.14;56.10;100271.63;110222;1249;20198;-39
2023/06/28 05:08:10;;;;;;;;;10.00;9.00;;;;;20.16;55.99;100278.32;110202;1251;20103;-41
2023/06/28 05:10:37;;;;;;;;;10.00;10.00;;;;;20.20;55.97;100275.50;110137;1251;19535;-41
2023/06/28 05:13:05;;;;;;;;;12.00;10.00;;;;;20.15;56.04;100274.08;110192;1265;18069;-39
2023/06/28 05:15:32;;;;;;;;;9.00;9.00;;;;;20.30;56.01;100271.14;110192;1251;20157;-40
2023/06/28 05:18:00;;;;;;;;;9.00;9.00;;;;;20.86;54.89;100270.14;110213;1260;19969;-41
2023/06/28 05:20:28;;;;;;;;;9.00;9.00;;;;;21.26;53.92;100272.77;110269;1265;19401;-41
2023/06/28 05:22:56;;;;;;;;;10.00;10.00;;;;;21.54;53.27;100269.84;110269;1251;20050;-41
2023/06/28 05:25:23;;;;;;;;;8.00;8.00;;;;;21.74;52.69;100273.82;110226;1257;19633;-40
2023/06/28 05:27:51;;;;;;;;;8.00;8.00;;;;;21.94;52.74;100274.27;110281;1251;19556;-39
2023/06/28 05:30:18;;;;;;;;;10.00;10.00;;;;;22.06;52.55;100280.73;110262;1259;18523;-40
2023/06/28 05:32:45;;;;;;;;;10.00;8.00;;;;;21.83;52.80;100283.30;110273;1265;20778;-39
2023/06/28 05:35:13;;;;;;;;;10.00;9.33;;;;;21.70;53.12;100277.98;110227;1251;19542;-40
2023/06/28 05:37:41;;;;;;;;;8.00;8.00;;;;;21.69;53.28;100271.63;110217;1251;20554;-39
2023/06/28 05:40:09;;;;;;;;;8.00;8.00;;;;;21.87;53.11;100268.73;110225;1251;18597;-40
2023/06/28 05:42:36;;;;;;;;;10.50;9.00;;;;;22.10;52.83;100268.22;110221;1250;19305;-40
2023/06/28 05:45:04;;;;;;;;;11.00;11.00;;;;;22.23;52.65;100266.52;110272;1266;20069;-38
2023/06/28 05:47:31;;;;;;;;;8.00;8.00;;;;;22.34;52.10;100266.23;110308;1250;19958;-38
2023/06/28 05:49:58;;;;;;;;;9.00;9.00;;;;;22.39;51.81;100269.16;110242;1251;19662;-40
2023/06/28 05:52:26;;;;;;;;;8.00;8.00;;;;;22.39;52.09;100267.69;110171;1251;20308;-41
2023/06/28 05:54:53;;;;;;;;;7.00;7.00;;;;;22.40;52.02;100265.26;110222;1251;19834;-41
2023/06/28 05:57:21;;;;;;;;;8.00;8.00;;;;;22.40;52.02;100262.27;110205;1251;19259;-40
2023/06/28 05:59:48;;;;;;;;;8.00;8.00;;;;;22.44;51.94;100263.02;110230;1251;21578;-40
2023/06/28 06:02:15;;;;;;;;;8.00;7.00;;;;;22.53;51.91;100258.93;110202;1249;21178;-40
2023/06/28 06:04:43;;;;;;;;;9.00;8.00;;;;;22.58;51.88;100257.33;110209;1251;19353;-41
2023/06/28 06:07:10;;;;;;;;;7.00;7.00;;;;;22.60;51.96;100256.80;110210;1250;19991;-41
2023/06/28 06:09:37;;;;;;;;;11.00;9.00;;;;;22.62;51.81;100256.13;110186;1257;20183;-41
2023/06/28 06:12:05;;;;;;;;;7.00;7.00;;;;;22.66;51.94;100256.02;110222;1260;21429;-39
2023/06/28 06:14:33;;;;;;;;;8.50;8.50;;;;;22.62;51.89;100257.85;110235;1251;20005;-38
2023/06/28 06:17:00;;;;;;;;;9.00;8.00;;;;;22.54;52.11;100257.76;110240;1257;19920;-38
2023/06/28 06:19:27;;;;;;;;;10.00;9.00;;;;;22.58;52.00;100259.88;110223;1251;17857;-39
2023/06/28 06:21:55;;;;;;;;;7.00;7.00;;;;;22.60;51.89;100259.81;110135;1257;20297;-37
2023/06/28 06:24:22;;;;;;;;;9.00;9.00;;;;;22.63;51.96;100251.63;110207;1265;18885;-40
2023/06/28 06:26:49;;;;;;;;;11.00;9.00;;;;;22.34;52.13;100255.42;110116;1251;17971;-39
2023/06/28 06:29:17;;;;;;;;;7.00;7.00;;;;;21.99;53.07;100252.27;110132;1265;18927;-39
2023/06/28 06:31:44;;;;;;;;;9.00;9.00;;;;;22.12;53.07;100253.33;110105;1251;20234;-39
2023/06/28 06:34:11;;;;;;;;;7.00;7.00;;;;;22.28;52.78;100254.26;109953;1267;19941;-39
2023/06/28 06:36:39;;;;;;;;;9.00;8.00;;;;;22.43;52.66;100252.14;110173;1265;18600;-40
2023/06/28 06:39:06;;;;;;;;;9.00;9.00;;;;;22.40;52.51;100250.98;110163;1265;18233;-40
2023/06/28 06:41:34;;;;;;;;;8.00;8.00;;;;;22.27;52.71;100246.06;110187;1250;19277;-40
2023/06/28 06:44:01;;;;;;;;;8.00;8.00;;;;;22.24;52.74;100245.96;110218;1265;19965;-39
2023/06/28 06:46:29;;;;;;;;;7.00;7.00;;;;;22.37;52.50;100243.27;110239;1251;19653;-38
2023/06/28 06:48:56;;;;;;;;;7.00;7.00;;;;;22.46;52.33;100248.63;110248;1250;20567;-39
2023/06/28 06:51:23;;;;;;;;;8.00;8.00;;;;;22.52;52.34;100248.34;110221;1251;20018;-40
2023/06/28 06:53:51;;;;;;;;;8.67;8.00;;;;;22.57;51.96;100252.56;110233;1251;20503;-40
2023/06/28 06:56:19;;;;;;;;;7.67;7.67;;;;;22.59;52.05;100251.56;110222;1251;19325;-40
2023/06/28 06:58:46;;;;;;;;;9.00;8.00;;;;;22.60;51.82;100245.45;110281;1251;20364;-39
2023/06/28 07:01:13;;;;;;;;;9.00;8.00;;;;;22.62;51.97;100243.02;110238;1265;18356;-40
2023/06/28 07:03:41;;;;;;;;;8.00;8.00;;;;;22.63;51.89;100243.39;110192;1265;18893;-40
2023/06/28 07:06:08;;;;;;;;;8.00;7.00;;;;;22.42;51.89;100249.52;110278;1265;19951;-40
2023/06/28 07:08:36;;;;;;;;;15.00;14.00;;;;;22.20;52.21;100247.85;110225;1251;19708;-42
2023/06/28 07:11:03;;;;;;;;;15.00;15.00;;;;;21.97;52.92;100250.53;110208;1260;20943;-41
2023/06/28 07:13:30;;;;;;;;;11.00;11.00;;;;;21.82;53.25;100251.61;110224;1251;19112;-39
2023/06/28 07:15:58;;;;;;;;;8.50;8.50;;;;;21.85;53.44;100253.83;110220;1251;20131;-40
2023/06/28 07:18:25;;;;;;;;;10.67;9.67;;;;;21.80;53.12;100250.67;110262;1251;19344;-40
2023/06/28 07:20:52;;;;;;;;;11.00;10.00;;;;;21.75;53.73;100254.48;110225;1251;21666;-39
2023/06/28 07:23:20;;;;;;;;;7.50;7.50;;;;;21.68;54.07;100252.44;110268;1265;18637;-39
2023/06/28 07:25:47;;;;;;;;;8.00;8.00;;;;;21.64;54.35;100251.02;110220;1251;22600;-38
2023/06/28 07:28:15;;;;;;;;;8.00;7.00;;;;;21.70;54.17;100251.13;110233;1251;19930;-39
2023/06/28 07:30:43;;;;;;;;;8.00;8.00;;;;;21.65;54.40;100248.30;110233;1251;19768;-40
2023/06/28 07:33:11;;;;;;;;;8.67;8.67;;;;;21.75;54.30;100251.21;110265;1251;22133;-40
2023/06/28 07:35:38;;;;;;;;;8.00;8.00;;;;;21.82;54.58;100250.48;110265;1251;19624;-40
2023/06/28 07:38:05;;;;;;;;;10.33;10.00;;;;;21.86;54.77;100249.71;110244;1249;19766;-39
2023/06/28 07:40:33;;;;;;;;;10.00;10.00;;;;;21.85;55.02;100251.52;110258;1257;18112;-39
2023/06/28 07:43:02;;;;;;;;;9.00;8.00;;;;;21.68;55.48;100252.23;110244;1251;20343;-40
2023/06/28 07:45:29;;;;;;;;;12.00;11.00;;;;;21.64;55.67;100252.27;110206;1265;22006;-40
2023/06/28 07:47:57;;;;;;;;;10.00;8.00;;;;;21.58;56.10;100254.61;110291;1266;21052;-40
2023/06/28 07:50:25;;;;;;;;;14.00;13.50;;;;;21.59;56.27;100257.81;110209;1266;21851;-40
2023/06/28 07:52:53;;;;;;;;;11.00;11.00;;;;;21.52;56.89;100257.73;110222;1251;20806;-39
2023/06/28 07:55:20;;;;;;;;;16.33;13.67;;;;;21.49;57.27;100263.65;110184;1251;19463;-40
2023/06/28 07:57:47;;;;;;;;;17.00;14.00;;;;;21.43;57.64;100265.19;110231;1260;20913;-39
2023/06/28 08:00:15;;;;;;;;;10.50;10.50;;;;;21.37;58.20;100263.83;110215;1260;18555;-39
2023/06/28 08:02:42;;;;;;;;;11.00;11.00;;;;;21.39;58.09;100264.86;110263;1265;18120;-40
2023/06/28 08:05:10;;;;;;;;;13.00;10.67;;;;;21.35;58.41;100264.81;110216;1251;18550;-40
2023/06/28 08:07:37;;;;;;;;;17.33;12.33;;;;;21.42;58.37;100265.59;110278;1265;18623;-38
2023/06/28 08:10:05;;;;;;;;;10.00;10.00;;;;;21.61;57.82;100265.72;110257;1265;18136;-40
2023/06/28 08:12:32;;;;;;;;;8.00;8.00;;;;;21.68;57.42;100264.61;110240;1251;22028;-41
2023/06/28 08:15:00;;;;;;;;;11.00;10.00;;;;;21.72;57.38;100269.90;110264;1265;18742;-40
2023/06/28 08:17:27;;;;;;;;;12.00;10.00;;;;;21.76;57.52;100268.17;110261;1257;18090;-40
2023/06/28 08:19:55;;;;;;;;;10.00;9.00;;;;;21.77;57.52;100271.59;110220;1251;20246;-40
2023/06/28 08:22:22;;;;;;;;;14.00;14.00;;;;;21.81;57.21;100269.55;110179;1251;20359;-39
2023/06/28 08:24:49;;;;;;;;;19.00;15.00;;;;;21.80;57.34;100270.39;110171;1251;19052;-40
2023/06/28 08:27:17;;;;;;;;;19.00;17.50;;;;;21.85;57.21;100271.40;110137;1265;18802;-40
2023/06/28 08:29:44;;;;;;;;;14.00;12.00;;;;;21.78;57.52;100270.80;110255;1250;20070;-39
2023/06/28 08:32:12;;;;;;;;;12.00;11.00;;;;;21.57;57.91;100273.43;110228;1260;19632;-39
2023/06/28 08:34:40;;;;;;;;;10.00;10.00;;;;;21.19;58.97;100274.61;110287;1250;20150;-40
2023/06/28 08:37:08;;;;;;;;;13.00;10.50;;;;;21.04;59.77;100274.04;110241;1251;20126;-39
2023/06/28 08:39:36;;;;;;;;;11.00;11.00;;;;;20.84;60.44;100274.54;110289;1265;18461;-40
2023/06/28 08:42:04;;;;;;;;;7.00;7.00;;;;;20.73;60.54;100275.67;110227;1266;18760;-38
2023/06/28 08:44:31;;;;;;;;;11.00;11.00;;;;;20.59;60.87;100274.58;110258;1260;19880;-40
2023/06/28 08:46:58;;;;;;;;;10.00;8.00;;;;;20.61;60.96;100276.25;110247;1251;20417;-40
2023/06/28 08:49:26;;;;;;;;;11.00;11.00;;;;;20.63;60.87;100275.86;110243;1265;20159;-40
2023/06/28 08:51:53;;;;;;;;;13.00;9.00;;;;;20.63;60.77;100273.39;110241;1251;20154;-39
2023/06/28 08:54:22;;;;;;;;;11.00;11.00;;;;;20.62;60.80;100273.13;110203;1251;19732;-40
2023/06/28 08:56:50;;;;;;;;;8.00;7.00;;;;;20.90;60.54;100274.69;110196;1265;18942;-40
2023/06/28 08:59:17;;;;;;;;;9.00;7.33;;;;;21.08;59.88;100270.10;110197;1251;20204;-42
2023/06/28 09:01:44;;;;;;;;;9.00;8.00;;;;;21.24;59.50;100273.81;110279;1265;19448;-40
2023/06/28 09:04:12;;;;;;;;;10.00;8.00;;;;;21.33;59.52;100273.79;110232;1249;20194;-39
2023/06/28 09:06:39;;;;;;;;;12.00;10.00;;;;;21.28;59.59;100269.23;110171;1251;19652;-38
2023/06/28 09:09:07;;;;;;;;;10.00;10.00;;;;;21.19;59.98;100268.44;110267;1251;23016;-43
2023/06/28 09:11:34;;;;;;;;;10.50;10.00;;;;;21.23;59.96;100271.59;110294;1260;21981;-40
2023/06/28 09:14:02;;;;;;;;;9.33;9.33;;;;;21.21;59.84;100271.69;110206;1265;18800;-39
2023/06/28 09:16:30;;;;;;;;;7.00;7.00;;;;;21.21;59.99;100268.92;110199;1251;19708;-41
2023/06/28 09:18:57;;;;;;;;;10.00;10.00;;;;;21.19;60.12;100269.66;110202;1260;18545;-40
2023/06/28 09:21:25;;;;;;;;;8.00;8.00;;;;;21.24;59.95;100269.30;110210;1266;22047;-39
2023/06/28 09:23:52;;;;;;;;;13.50;10.00;;;;;21.36;59.79;100271.09;110254;1265;17864;-40
2023/06/28 09:26:20;;;;;;;;;8.00;8.00;;;;;21.37;59.97;100268.73;110217;1265;19932;-40
2023/06/28 09:28:47;;;;;;;;;10.50;10.00;;;;;21.37;60.03;100273.76;110223;1265;18818;-40
2023/06/28 09:31:14;;;;;;;;;13.00;11.00;;;;;21.40;60.01;100273.66;110214;1251;18448;-40
2023/06/28 09:33:42;;;;;;;;;13.50;12.00;;;;;21.26;60.45;100268.83;110223;1265;18580;-40
2023/06/28 09:36:09;;;;;;;;;13.00;11.00;;;;;21.22;60.63;100270.20;110241;1265;18553;-41
2023/06/28 09:38:36;;;;;;;;;10.00;10.00;;;;;21.28;60.50;100270.70;110230;1251;18282;-40
2023/06/28 09:41:04;;;;;;;;;13.50;12.00;;;;;21.38;60.11;100270.54;110260;1251;20227;-39
2023/06/28 09:43:32;;;;;;;;;11.00;10.00;;;;;21.42;60.00;100272.09;110179;1251;20268;-40
2023/06/28 09:45:59;;;;;;;;;13.00;11.00;;;;;21.46;59.72;100271.20;110245;1250;19635;-40
2023/06/28 09:48:27;;;;;;;;;10.00;10.00;;;;;21.47;59.96;100270.14;110219;1251;20377;-41
2023/06/28 09:50:56;;;;;;;;;18.00;17.50;;;;;21.49;60.07;100270.36;110193;1250;21002;-41
2023/06/28 09:53:25;;;;;;;;;14.50;13.00;;;;;21.37;60.68;100269.06;110266;1251;19573;-40
2023/06/28 09:55:53;;;;;;;;;14.50;13.00;;;;;21.39;60.70;100268.52;110270;1265;18571;-41
2023/06/28 09:58:20;;;;;;;;;11.00;11.00;;;;;21.44;60.54;100266.28;110278;1251;20082;-39
2023/06/28 10:00:48;;;;;;;;;17.00;15.00;;;;;21.43;60.66;100269.77;110239;1251;19644;-39
2023/06/28 10:03:15;;;;;;;;;14.00;13.00;;;;;21.40;61.19;100270.92;110299;1251;20327;-41
2023/06/28 10:05:43;;;;;;;;;12.00;12.00;;;;;21.35;61.18;100268.66;110278;1260;20049;-39
2023/06/28 10:08:10;;;;;;;;;17.00;13.00;;;;;21.31;61.46;100273.88;110181;1250;19851;-39
2023/06/28 10:10:37;;;;;;;;;14.00;13.00;;;;;21.28;61.95;100270.02;110129;1249;20197;-40
2023/06/28 10:13:05;;;;;;;;;9.00;9.00;;;;;21.27;62.25;100273.36;110145;1265;22255;-40
2023/06/28 10:15:32;;;;;;;;;13.00;11.00;;;;;21.36;62.08;100268.84;110174;1265;18016;-40
2023/06/28 10:18:00;;;;;;;;;12.00;10.00;;;;;21.40;62.42;100269.01;110107;1265;20183;-40
2023/06/28 10:20:27;;;;;;;;;13.00;13.00;;;;;21.39;62.56;100268.83;110149;1251;20222;-40
2023/06/28 10:22:55;;;;;;;;;16.00;11.00;;;;;21.32;62.78;100266.35;110168;1265;18990;-40
2023/06/28 10:25:22;;;;;;;;;11.00;11.00;;;;;21.38;62.59;100268.20;110234;1265;18910;-40
2023/06/28 10:27:50;;;;;;;;;15.00;13.00;;;;;21.41;62.38;100273.85;110223;1265;20920;-40
2023/06/28 10:30:17;;;;;;;;;10.33;8.00;;;;;21.43;62.51;100273.27;110183;1251;21925;-41
2023/06/28 10:32:45;;;;;;;;;10.50;10.50;;;;;21.44;62.30;100274.89;110212;1266;19266;-40
2023/06/28 10:35:12;;;;;;;;;13.00;11.00;;;;;21.46;62.22;100277.63;110261;1251;19942;-40
2023/06/28 10:37:40;;;;;;;;;20.00;17.50;;;;;21.48;62.27;100279.13;110165;1265;18465;-40
2023/06/28 10:40:09;;;;;;;;;20.00;16.00;;;;;21.51;62.19;100277.19;110207;1250;18577;-39
2023/06/28 10:42:36;;;;;;;;;17.00;15.00;;;;;21.55;62.37;100275.52;110168;1250;22041;-41
2023/06/28 10:45:04;;;;;;;;;12.00;12.00;;;;;21.68;62.07;100276.64;110205;1265;19280;-41
2023/06/28 10:47:31;;;;;;;;;15.00;15.00;;;;;21.74;61.82;100280.83;110183;1250;19944;-41
2023/06/28 10:49:58;;;;;;;;;16.00;15.00;;;;;21.72;61.72;100278.34;110233;1250;18555;-41
2023/06/28 10:52:26;;;;;;;;;14.00;12.00;;;;;21.65;61.80;100277.70;110223;1265;18477;-42
2023/06/28 10:54:53;;;;;;;;;14.00;14.00;;;;;21.60;62.05;100274.69;110199;1251;19871;-41
2023/06/28 10:57:21;;;;;;;;;11.00;11.00;;;;;21.69;62.04;100274.73;110205;1250;20406;-41
2023/06/28 10:59:48;;;;;;;;;13.67;10.33;;;;;21.74;61.76;100280.02;110208;1251;19611;-42
2023/06/28 11:02:15;;;;;;;;;11.33;11.00;;;;;21.76;61.94;100276.30;110210;1251;21877;-39
2023/06/28 11:04:43;;;;;;;;;11.00;10.00;;;;;21.94;61.35;100274.52;110199;1251;20228;-40
2023/06/28 11:07:10;;;;;;;;;12.00;12.00;;;;;22.10;61.07;100276.15;110214;1265;18080;-38
2023/06/28 11:09:37;;;;;;;;;9.00;8.67;;;;;22.12;61.01;100282.80;110218;1265;20533;-39